sensor_id;sensor_type;location;lat;lon;timestamp;P1;durP1;ratioP1;P2;durP2;ratioP2
42866;SDS011;39461;40.948;73.006;2023-03-01T00:01:10;24.42;;;11.57;;
42866;SDS011;39461;40.948;73.006;2023-03-01T00:03:44;29.15;;;13.25;;
42866;SDS011;39461;40.948;73.006;2023-03-01T00:06:20;45.63;;;17.73;;
42866;SDS011;39461;40.948;73.006;2023-03-01T00:08:55;70.05;;;18.08;;
42866;SDS011;39461;40.948;73.006;2023-03-01T00:11:31;39.60;;;15.65;;
42866;SDS011;39461;40.948;73.006;2023-03-01T00:14:06;32.05;;;17.25;;
42866;SDS011;39461;40.948;73.006;2023-03-01T00:16:40;31.15;;;16.73;;
42866;SDS011;39461;40.948;73.006;2023-03-01T00:19:15;35.55;;;19.20;;
42866;SDS011;39461;40.948;73.006;2023-03-01T00:21:52;40.33;;;20.90;;
42866;SDS011;39461;40.948;73.006;2023-03-01T00:24:25;41.53;;;20.40;;
42866;SDS011;39461;40.948;73.006;2023-03-01T00:26:54;35.42;;;18.35;;
42866;SDS011;39461;40.948;73.006;2023-03-01T00:29:30;32.35;;;18.15;;
42866;SDS011;39461;40.948;73.006;2023-03-01T00:32:05;33.92;;;18.58;;
42866;SDS011;39461;40.948;73.006;2023-03-01T00:34:38;34.45;;;19.48;;
42866;SDS011;39461;40.948;73.006;2023-03-01T00:37:13;35.83;;;19.90;;
42866;SDS011;39461;40.948;73.006;2023-03-01T00:39:49;37.22;;;20.27;;
42866;SDS011;39461;40.948;73.006;2023-03-01T00:42:24;35.45;;;20.05;;
42866;SDS011;39461;40.948;73.006;2023-03-01T00:44:59;43.75;;;21.92;;
42866;SDS011;39461;40.948;73.006;2023-03-01T00:47:34;36.20;;;19.75;;
42866;SDS011;39461;40.948;73.006;2023-03-01T00:50:07;48.83;;;24.83;;
42866;SDS011;39461;40.948;73.006;2023-03-01T00:52:41;45.08;;;24.42;;
42866;SDS011;39461;40.948;73.006;2023-03-01T00:55:14;44.45;;;24.95;;
42866;SDS011;39461;40.948;73.006;2023-03-01T01:00:46;64.45;;;33.88;;
42866;SDS011;39461;40.948;73.006;2023-03-01T01:03:23;81.80;;;43.90;;
42866;SDS011;39461;40.948;73.006;2023-03-01T01:05:58;66.15;;;35.70;;
42866;SDS011;39461;40.948;73.006;2023-03-01T01:08:43;56.83;;;29.95;;
42866;SDS011;39461;40.948;73.006;2023-03-01T01:11:18;75.70;;;40.58;;
42866;SDS011;39461;40.948;73.006;2023-03-01T01:13:53;78.28;;;42.50;;
42866;SDS011;39461;40.948;73.006;2023-03-01T01:16:27;72.07;;;38.55;;
42866;SDS011;39461;40.948;73.006;2023-03-01T01:19:01;55.10;;;29.35;;
42866;SDS011;39461;40.948;73.006;2023-03-01T01:21:36;36.50;;;20.20;;
42866;SDS011;39461;40.948;73.006;2023-03-01T01:27:15;37.15;;;22.23;;
42866;SDS011;39461;40.948;73.006;2023-03-01T01:29:48;37.65;;;18.77;;
42866;SDS011;39461;40.948;73.006;2023-03-01T01:32:21;32.92;;;17.23;;
42866;SDS011;39461;40.948;73.006;2023-03-01T01:34:56;37.80;;;18.50;;
42866;SDS011;39461;40.948;73.006;2023-03-01T01:37:31;33.85;;;18.00;;
42866;SDS011;39461;40.948;73.006;2023-03-01T01:40:13;43.10;;;19.75;;
42866;SDS011;39461;40.948;73.006;2023-03-01T01:42:46;65.65;;;23.83;;
42866;SDS011;39461;40.948;73.006;2023-03-01T01:48:00;56.58;;;25.13;;
42866;SDS011;39461;40.948;73.006;2023-03-01T01:50:35;82.85;;;39.40;;
42866;SDS011;39461;40.948;73.006;2023-03-01T01:53:15;107.50;;;48.58;;
42866;SDS011;39461;40.948;73.006;2023-03-01T01:55:52;98.90;;;44.22;;
42866;SDS011;39461;40.948;73.006;2023-03-01T01:58:28;100.43;;;44.97;;
42866;SDS011;39461;40.948;73.006;2023-03-01T02:01:02;115.28;;;46.88;;
42866;SDS011;39461;40.948;73.006;2023-03-01T02:03:38;129.45;;;51.72;;
42866;SDS011;39461;40.948;73.006;2023-03-01T02:09:14;75.43;;;35.35;;
42866;SDS011;39461;40.948;73.006;2023-03-01T02:11:43;77.93;;;36.58;;
42866;SDS011;39461;40.948;73.006;2023-03-01T02:14:17;82.53;;;34.95;;
42866;SDS011;39461;40.948;73.006;2023-03-01T02:16:52;83.57;;;31.25;;
42866;SDS011;39461;40.948;73.006;2023-03-01T02:19:34;76.88;;;30.85;;
42866;SDS011;39461;40.948;73.006;2023-03-01T02:27:25;152.50;;;75.07;;
42866;SDS011;39461;40.948;73.006;2023-03-01T02:30:01;142.23;;;56.92;;
42866;SDS011;39461;40.948;73.006;2023-03-01T02:32:34;83.93;;;42.05;;
42866;SDS011;39461;40.948;73.006;2023-03-01T02:35:10;108.88;;;45.35;;
42866;SDS011;39461;40.948;73.006;2023-03-01T02:37:50;117.32;;;47.22;;
42866;SDS011;39461;40.948;73.006;2023-03-01T02:40:29;137.77;;;68.40;;
42866;SDS011;39461;40.948;73.006;2023-03-01T02:43:04;110.88;;;52.85;;
42866;SDS011;39461;40.948;73.006;2023-03-01T02:45:50;136.90;;;65.85;;
42866;SDS011;39461;40.948;73.006;2023-03-01T02:48:27;138.30;;;61.53;;
42866;SDS011;39461;40.948;73.006;2023-03-01T02:54:31;128.25;;;59.65;;
42866;SDS011;39461;40.948;73.006;2023-03-01T02:57:09;149.43;;;68.22;;
42866;SDS011;39461;40.948;73.006;2023-03-01T02:59:46;128.50;;;67.95;;
42866;SDS011;39461;40.948;73.006;2023-03-01T03:02:29;107.70;;;59.58;;
42866;SDS011;39461;40.948;73.006;2023-03-01T03:08:07;106.30;;;56.92;;
42866;SDS011;39461;40.948;73.006;2023-03-01T03:10:43;135.57;;;58.22;;
42866;SDS011;39461;40.948;73.006;2023-03-01T03:13:18;108.13;;;56.47;;
42866;SDS011;39461;40.948;73.006;2023-03-01T03:15:59;126.63;;;69.03;;
42866;SDS011;39461;40.948;73.006;2023-03-01T03:18:35;129.35;;;58.72;;
42866;SDS011;39461;40.948;73.006;2023-03-01T03:21:11;131.50;;;59.28;;
42866;SDS011;39461;40.948;73.006;2023-03-01T03:23:44;238.52;;;74.30;;
42866;SDS011;39461;40.948;73.006;2023-03-01T03:26:17;158.70;;;66.05;;
42866;SDS011;39461;40.948;73.006;2023-03-01T03:28:52;155.07;;;66.45;;
42866;SDS011;39461;40.948;73.006;2023-03-01T03:31:29;199.20;;;89.80;;
42866;SDS011;39461;40.948;73.006;2023-03-01T03:34:02;183.70;;;87.18;;
42866;SDS011;39461;40.948;73.006;2023-03-01T03:39:37;175.15;;;82.78;;
42866;SDS011;39461;40.948;73.006;2023-03-01T03:42:12;177.07;;;83.15;;
42866;SDS011;39461;40.948;73.006;2023-03-01T03:44:47;148.82;;;72.35;;
42866;SDS011;39461;40.948;73.006;2023-03-01T03:47:20;100.97;;;49.85;;
42866;SDS011;39461;40.948;73.006;2023-03-01T03:49:53;106.22;;;55.45;;
42866;SDS011;39461;40.948;73.006;2023-03-01T03:52:32;108.35;;;56.35;;
42866;SDS011;39461;40.948;73.006;2023-03-01T03:55:08;88.78;;;50.95;;
42866;SDS011;39461;40.948;73.006;2023-03-01T03:57:45;87.05;;;52.38;;
42866;SDS011;39461;40.948;73.006;2023-03-01T04:00:27;71.93;;;43.88;;
42866;SDS011;39461;40.948;73.006;2023-03-01T04:03:03;82.25;;;47.30;;
42866;SDS011;39461;40.948;73.006;2023-03-01T04:05:36;98.80;;;52.63;;
42866;SDS011;39461;40.948;73.006;2023-03-01T04:08:10;88.35;;;50.75;;
42866;SDS011;39461;40.948;73.006;2023-03-01T04:10:44;79.32;;;47.28;;
42866;SDS011;39461;40.948;73.006;2023-03-01T04:13:18;81.20;;;47.90;;
42866;SDS011;39461;40.948;73.006;2023-03-01T04:15:54;76.20;;;40.22;;
42866;SDS011;39461;40.948;73.006;2023-03-01T04:18:27;79.18;;;43.25;;
42866;SDS011;39461;40.948;73.006;2023-03-01T04:21:00;92.57;;;56.75;;
42866;SDS011;39461;40.948;73.006;2023-03-01T04:23:35;95.75;;;56.97;;
42866;SDS011;39461;40.948;73.006;2023-03-01T04:26:04;42.78;;;25.85;;
42866;SDS011;39461;40.948;73.006;2023-03-01T04:28:33;48.92;;;25.77;;
42866;SDS011;39461;40.948;73.006;2023-03-01T04:31:09;56.47;;;32.35;;
42866;SDS011;39461;40.948;73.006;2023-03-01T04:33:50;46.13;;;24.30;;
42866;SDS011;39461;40.948;73.006;2023-03-01T04:36:27;46.05;;;26.25;;
42866;SDS011;39461;40.948;73.006;2023-03-01T04:39:00;38.92;;;23.50;;
42866;SDS011;39461;40.948;73.006;2023-03-01T04:41:45;33.75;;;17.60;;
42866;SDS011;39461;40.948;73.006;2023-03-01T04:44:19;40.05;;;19.48;;
42866;SDS011;39461;40.948;73.006;2023-03-01T04:46:54;34.75;;;19.88;;
42866;SDS011;39461;40.948;73.006;2023-03-01T04:49:27;36.92;;;19.60;;
42866;SDS011;39461;40.948;73.006;2023-03-01T04:52:03;38.90;;;19.13;;
42866;SDS011;39461;40.948;73.006;2023-03-01T04:54:36;33.25;;;17.95;;
42866;SDS011;39461;40.948;73.006;2023-03-01T04:57:09;31.98;;;19.13;;
42866;SDS011;39461;40.948;73.006;2023-03-01T04:59:44;41.95;;;20.15;;
42866;SDS011;39461;40.948;73.006;2023-03-01T05:02:17;40.38;;;19.45;;
42866;SDS011;39461;40.948;73.006;2023-03-01T05:04:50;35.40;;;19.95;;
42866;SDS011;39461;40.948;73.006;2023-03-01T05:07:29;40.17;;;21.00;;
42866;SDS011;39461;40.948;73.006;2023-03-01T05:10:02;36.45;;;17.95;;
42866;SDS011;39461;40.948;73.006;2023-03-01T05:12:38;42.25;;;19.60;;
42866;SDS011;39461;40.948;73.006;2023-03-01T05:15:11;36.70;;;17.70;;
42866;SDS011;39461;40.948;73.006;2023-03-01T05:17:44;40.97;;;19.48;;
42866;SDS011;39461;40.948;73.006;2023-03-01T05:20:17;38.72;;;19.15;;
42866;SDS011;39461;40.948;73.006;2023-03-01T05:22:58;38.38;;;16.33;;
42866;SDS011;39461;40.948;73.006;2023-03-01T05:25:33;30.80;;;13.45;;
42866;SDS011;39461;40.948;73.006;2023-03-01T05:28:13;34.95;;;15.35;;
42866;SDS011;39461;40.948;73.006;2023-03-01T05:30:46;34.22;;;16.42;;
42866;SDS011;39461;40.948;73.006;2023-03-01T05:33:23;34.88;;;17.55;;
42866;SDS011;39461;40.948;73.006;2023-03-01T05:35:59;34.33;;;16.98;;
42866;SDS011;39461;40.948;73.006;2023-03-01T05:38:33;31.45;;;15.73;;
42866;SDS011;39461;40.948;73.006;2023-03-01T05:41:12;34.67;;;16.70;;
42866;SDS011;39461;40.948;73.006;2023-03-01T05:43:46;38.72;;;17.60;;
42866;SDS011;39461;40.948;73.006;2023-03-01T05:46:21;41.60;;;20.25;;
42866;SDS011;39461;40.948;73.006;2023-03-01T05:48:56;51.83;;;23.55;;
42866;SDS011;39461;40.948;73.006;2023-03-01T05:51:31;42.05;;;23.77;;
42866;SDS011;39461;40.948;73.006;2023-03-01T05:54:05;44.80;;;23.35;;
42866;SDS011;39461;40.948;73.006;2023-03-01T05:56:38;47.33;;;23.52;;
42866;SDS011;39461;40.948;73.006;2023-03-01T05:59:13;41.33;;;24.13;;
42866;SDS011;39461;40.948;73.006;2023-03-01T06:01:48;40.83;;;22.98;;
42866;SDS011;39461;40.948;73.006;2023-03-01T06:04:27;41.00;;;23.35;;
42866;SDS011;39461;40.948;73.006;2023-03-01T06:07:00;41.63;;;22.67;;
42866;SDS011;39461;40.948;73.006;2023-03-01T06:09:34;35.83;;;20.88;;
42866;SDS011;39461;40.948;73.006;2023-03-01T06:12:11;33.83;;;19.70;;
42866;SDS011;39461;40.948;73.006;2023-03-01T06:14:44;28.42;;;17.08;;
42866;SDS011;39461;40.948;73.006;2023-03-01T06:20:21;27.45;;;13.43;;
42866;SDS011;39461;40.948;73.006;2023-03-01T06:22:54;30.90;;;13.00;;
42866;SDS011;39461;40.948;73.006;2023-03-01T06:25:22;22.10;;;12.32;;
42866;SDS011;39461;40.948;73.006;2023-03-01T06:27:51;20.00;;;11.90;;
42866;SDS011;39461;40.948;73.006;2023-03-01T06:30:26;16.33;;;10.35;;
42866;SDS011;39461;40.948;73.006;2023-03-01T06:33:01;16.88;;;9.80;;
42866;SDS011;39461;40.948;73.006;2023-03-01T06:35:35;24.40;;;11.57;;
42866;SDS011;39461;40.948;73.006;2023-03-01T06:38:10;26.08;;;11.43;;
42866;SDS011;39461;40.948;73.006;2023-03-01T06:40:51;23.98;;;12.60;;
42866;SDS011;39461;40.948;73.006;2023-03-01T06:46:26;19.58;;;10.18;;
42866;SDS011;39461;40.948;73.006;2023-03-01T06:49:01;19.10;;;10.27;;
42866;SDS011;39461;40.948;73.006;2023-03-01T06:51:41;24.45;;;11.02;;
42866;SDS011;39461;40.948;73.006;2023-03-01T06:54:16;17.20;;;9.77;;
42866;SDS011;39461;40.948;73.006;2023-03-01T06:56:51;17.90;;;10.77;;
42866;SDS011;39461;40.948;73.006;2023-03-01T06:59:24;17.80;;;9.48;;
42866;SDS011;39461;40.948;73.006;2023-03-01T07:01:58;40.90;;;19.00;;
42866;SDS011;39461;40.948;73.006;2023-03-01T07:04:32;24.55;;;10.23;;
42866;SDS011;39461;40.948;73.006;2023-03-01T07:07:05;22.75;;;10.18;;
42866;SDS011;39461;40.948;73.006;2023-03-01T07:09:42;25.40;;;10.75;;
42866;SDS011;39461;40.948;73.006;2023-03-01T07:12:15;20.20;;;10.05;;
42866;SDS011;39461;40.948;73.006;2023-03-01T07:14:51;23.20;;;10.40;;
42866;SDS011;39461;40.948;73.006;2023-03-01T07:17:26;32.92;;;18.10;;
42866;SDS011;39461;40.948;73.006;2023-03-01T07:19:59;37.85;;;20.45;;
42866;SDS011;39461;40.948;73.006;2023-03-01T07:22:34;36.42;;;19.55;;
42866;SDS011;39461;40.948;73.006;2023-03-01T07:25:07;47.50;;;32.20;;
42866;SDS011;39461;40.948;73.006;2023-03-01T07:27:43;37.00;;;19.08;;
42866;SDS011;39461;40.948;73.006;2023-03-01T07:30:16;34.05;;;17.20;;
42866;SDS011;39461;40.948;73.006;2023-03-01T07:32:51;28.52;;;13.35;;
42866;SDS011;39461;40.948;73.006;2023-03-01T07:35:25;29.63;;;16.95;;
42866;SDS011;39461;40.948;73.006;2023-03-01T07:38:00;27.45;;;13.90;;
42866;SDS011;39461;40.948;73.006;2023-03-01T07:40:36;37.55;;;15.88;;
42866;SDS011;39461;40.948;73.006;2023-03-01T07:43:09;33.65;;;16.10;;
42866;SDS011;39461;40.948;73.006;2023-03-01T07:45:44;36.03;;;15.50;;
42866;SDS011;39461;40.948;73.006;2023-03-01T07:48:17;33.83;;;16.02;;
42866;SDS011;39461;40.948;73.006;2023-03-01T07:50:52;25.50;;;14.13;;
42866;SDS011;39461;40.948;73.006;2023-03-01T07:53:28;353.17;;;284.80;;
42866;SDS011;39461;40.948;73.006;2023-03-01T07:56:11;26.85;;;14.95;;
42866;SDS011;39461;40.948;73.006;2023-03-01T08:01:46;29.42;;;13.90;;
42866;SDS011;39461;40.948;73.006;2023-03-01T08:04:23;31.27;;;15.18;;
42866;SDS011;39461;40.948;73.006;2023-03-01T08:07:05;44.83;;;23.33;;
42866;SDS011;39461;40.948;73.006;2023-03-01T08:09:38;44.05;;;25.98;;
42866;SDS011;39461;40.948;73.006;2023-03-01T08:12:13;46.00;;;19.52;;
42866;SDS011;39461;40.948;73.006;2023-03-01T08:14:55;34.67;;;17.33;;
42866;SDS011;39461;40.948;73.006;2023-03-01T08:17:30;31.40;;;15.82;;
42866;SDS011;39461;40.948;73.006;2023-03-01T08:20:05;37.42;;;22.77;;
42866;SDS011;39461;40.948;73.006;2023-03-01T08:22:41;33.00;;;16.40;;
42866;SDS011;39461;40.948;73.006;2023-03-01T08:25:10;28.80;;;15.70;;
42866;SDS011;39461;40.948;73.006;2023-03-01T08:27:39;33.47;;;15.20;;
42866;SDS011;39461;40.948;73.006;2023-03-01T08:30:12;33.58;;;17.05;;
42866;SDS011;39461;40.948;73.006;2023-03-01T08:32:48;27.30;;;16.05;;
42866;SDS011;39461;40.948;73.006;2023-03-01T08:35:25;29.48;;;15.85;;
42866;SDS011;39461;40.948;73.006;2023-03-01T08:37:58;33.53;;;16.08;;
42866;SDS011;39461;40.948;73.006;2023-03-01T08:40:35;32.17;;;14.65;;
42866;SDS011;39461;40.948;73.006;2023-03-01T08:43:10;27.27;;;15.35;;
42866;SDS011;39461;40.948;73.006;2023-03-01T08:45:47;28.17;;;15.10;;
42866;SDS011;39461;40.948;73.006;2023-03-01T08:51:20;27.75;;;12.30;;
42866;SDS011;39461;40.948;73.006;2023-03-01T08:53:56;32.22;;;16.35;;
42866;SDS011;39461;40.948;73.006;2023-03-01T08:56:29;22.67;;;13.00;;
42866;SDS011;39461;40.948;73.006;2023-03-01T08:59:09;28.23;;;14.32;;
42866;SDS011;39461;40.948;73.006;2023-03-01T09:01:51;28.55;;;17.88;;
42866;SDS011;39461;40.948;73.006;2023-03-01T09:04:24;30.50;;;17.85;;
42866;SDS011;39461;40.948;73.006;2023-03-01T09:06:59;26.77;;;12.82;;
42866;SDS011;39461;40.948;73.006;2023-03-01T09:09:38;33.63;;;15.98;;
42866;SDS011;39461;40.948;73.006;2023-03-01T09:12:14;30.65;;;16.85;;
42866;SDS011;39461;40.948;73.006;2023-03-01T09:14:51;28.50;;;14.50;;
42866;SDS011;39461;40.948;73.006;2023-03-01T09:17:25;36.97;;;20.35;;
42866;SDS011;39461;40.948;73.006;2023-03-01T09:19:58;30.58;;;15.93;;
42866;SDS011;39461;40.948;73.006;2023-03-01T09:22:33;32.08;;;16.45;;
42866;SDS011;39461;40.948;73.006;2023-03-01T09:25:08;36.70;;;14.23;;
42866;SDS011;39461;40.948;73.006;2023-03-01T09:28:05;28.92;;;15.63;;
42866;SDS011;39461;40.948;73.006;2023-03-01T09:30:41;26.65;;;13.35;;
42866;SDS011;39461;40.948;73.006;2023-03-01T09:33:16;29.35;;;14.50;;
42866;SDS011;39461;40.948;73.006;2023-03-01T09:35:55;28.25;;;13.82;;
42866;SDS011;39461;40.948;73.006;2023-03-01T09:38:29;36.70;;;19.30;;
42866;SDS011;39461;40.948;73.006;2023-03-01T09:41:14;32.33;;;18.65;;
42866;SDS011;39461;40.948;73.006;2023-03-01T09:43:55;29.00;;;15.85;;
42866;SDS011;39461;40.948;73.006;2023-03-01T09:46:37;26.73;;;14.18;;
42866;SDS011;39461;40.948;73.006;2023-03-01T09:52:23;30.58;;;18.02;;
42866;SDS011;39461;40.948;73.006;2023-03-01T09:55:08;55.80;;;34.47;;
42866;SDS011;39461;40.948;73.006;2023-03-01T10:11:00;43.45;;;19.83;;
42866;SDS011;39461;40.948;73.006;2023-03-01T10:19:15;36.15;;;16.45;;
42866;SDS011;39461;40.948;73.006;2023-03-01T10:21:49;31.95;;;16.45;;
42866;SDS011;39461;40.948;73.006;2023-03-01T10:24:24;33.92;;;19.30;;
42866;SDS011;39461;40.948;73.006;2023-03-01T10:26:54;33.90;;;18.10;;
42866;SDS011;39461;40.948;73.006;2023-03-01T10:29:49;36.35;;;18.30;;
42866;SDS011;39461;40.948;73.006;2023-03-01T10:32:27;29.55;;;17.58;;
42866;SDS011;39461;40.948;73.006;2023-03-01T10:38:09;27.33;;;16.02;;
42866;SDS011;39461;40.948;73.006;2023-03-01T10:59:00;25.65;;;15.35;;
42866;SDS011;39461;40.948;73.006;2023-03-01T11:01:35;27.42;;;15.30;;
42866;SDS011;39461;40.948;73.006;2023-03-01T11:04:11;28.60;;;19.08;;
42866;SDS011;39461;40.948;73.006;2023-03-01T11:06:46;36.10;;;20.48;;
42866;SDS011;39461;40.948;73.006;2023-03-01T11:09:31;26.23;;;15.05;;
42866;SDS011;39461;40.948;73.006;2023-03-01T11:21:56;26.15;;;15.05;;
42866;SDS011;39461;40.948;73.006;2023-03-01T11:24:37;34.53;;;17.48;;
42866;SDS011;39461;40.948;73.006;2023-03-01T11:30:27;25.45;;;14.15;;
42866;SDS011;39461;40.948;73.006;2023-03-01T11:33:17;29.88;;;15.07;;
42866;SDS011;39461;40.948;73.006;2023-03-01T11:35:57;28.05;;;15.77;;
42866;SDS011;39461;40.948;73.006;2023-03-01T11:38:35;27.98;;;14.88;;
42866;SDS011;39461;40.948;73.006;2023-03-01T11:43:54;37.65;;;16.55;;
42866;SDS011;39461;40.948;73.006;2023-03-01T11:46:36;30.02;;;14.77;;
42866;SDS011;39461;40.948;73.006;2023-03-01T11:52:01;32.65;;;16.60;;
42866;SDS011;39461;40.948;73.006;2023-03-01T12:00:14;88.30;;;46.83;;
42866;SDS011;39461;40.948;73.006;2023-03-01T12:11:15;54.45;;;28.42;;
42866;SDS011;39461;40.948;73.006;2023-03-01T12:14:03;43.33;;;24.50;;
42866;SDS011;39461;40.948;73.006;2023-03-01T12:49:08;103.30;;;55.78;;
42866;SDS011;39461;40.948;73.006;2023-03-01T12:51:42;144.13;;;76.85;;
42866;SDS011;39461;40.948;73.006;2023-03-01T12:54:25;152.57;;;84.93;;
42866;SDS011;39461;40.948;73.006;2023-03-01T12:57:02;167.77;;;90.22;;
42866;SDS011;39461;40.948;73.006;2023-03-01T12:59:42;129.23;;;72.57;;
42866;SDS011;39461;40.948;73.006;2023-03-01T13:02:27;118.07;;;63.55;;
42866;SDS011;39461;40.948;73.006;2023-03-01T13:10:51;68.20;;;39.50;;
42866;SDS011;39461;40.948;73.006;2023-03-01T13:13:26;75.68;;;41.53;;
42866;SDS011;39461;40.948;73.006;2023-03-01T13:19:16;72.05;;;37.55;;
42866;SDS011;39461;40.948;73.006;2023-03-01T13:21:50;75.30;;;39.28;;
42866;SDS011;39461;40.948;73.006;2023-03-01T13:24:33;86.88;;;44.40;;
42866;SDS011;39461;40.948;73.006;2023-03-01T13:27:18;105.07;;;58.63;;
42866;SDS011;39461;40.948;73.006;2023-03-01T13:29:59;139.70;;;77.03;;
42866;SDS011;39461;40.948;73.006;2023-03-01T13:32:39;137.85;;;79.03;;
42866;SDS011;39461;40.948;73.006;2023-03-01T13:35:40;147.93;;;79.97;;
42866;SDS011;39461;40.948;73.006;2023-03-01T13:41:04;166.10;;;94.97;;
42866;SDS011;39461;40.948;73.006;2023-03-01T13:46:38;178.73;;;95.70;;
42866;SDS011;39461;40.948;73.006;2023-03-01T13:49:18;231.82;;;120.47;;
42866;SDS011;39461;40.948;73.006;2023-03-01T13:51:53;332.63;;;175.48;;
42866;SDS011;39461;40.948;73.006;2023-03-01T13:54:32;305.83;;;140.70;;
42866;SDS011;39461;40.948;73.006;2023-03-01T13:57:12;237.30;;;118.20;;
42866;SDS011;39461;40.948;73.006;2023-03-01T13:59:53;200.57;;;106.30;;
42866;SDS011;39461;40.948;73.006;2023-03-01T14:02:31;536.47;;;299.60;;
42866;SDS011;39461;40.948;73.006;2023-03-01T14:08:04;412.77;;;217.20;;
42866;SDS011;39461;40.948;73.006;2023-03-01T14:11:02;354.83;;;195.15;;
42866;SDS011;39461;40.948;73.006;2023-03-01T14:27:39;433.95;;;260.52;;
42866;SDS011;39461;40.948;73.006;2023-03-01T14:30:18;463.75;;;269.20;;
42866;SDS011;39461;40.948;73.006;2023-03-01T14:32:58;466.00;;;266.88;;
42866;SDS011;39461;40.948;73.006;2023-03-01T14:41:27;478.35;;;273.13;;
42866;SDS011;39461;40.948;73.006;2023-03-01T14:47:01;451.52;;;266.23;;
42866;SDS011;39461;40.948;73.006;2023-03-01T14:49:36;436.45;;;245.98;;
42866;SDS011;39461;40.948;73.006;2023-03-01T14:52:18;397.45;;;236.20;;
42866;SDS011;39461;40.948;73.006;2023-03-01T14:54:59;428.90;;;238.68;;
42866;SDS011;39461;40.948;73.006;2023-03-01T14:57:32;414.02;;;243.80;;
42866;SDS011;39461;40.948;73.006;2023-03-01T15:00:05;388.95;;;226.77;;
42866;SDS011;39461;40.948;73.006;2023-03-01T15:02:41;382.17;;;226.32;;
42866;SDS011;39461;40.948;73.006;2023-03-01T15:05:14;355.90;;;199.45;;
42866;SDS011;39461;40.948;73.006;2023-03-01T15:07:48;311.58;;;160.18;;
42866;SDS011;39461;40.948;73.006;2023-03-01T15:10:23;291.63;;;141.32;;
42866;SDS011;39461;40.948;73.006;2023-03-01T15:13:09;244.80;;;133.88;;
42866;SDS011;39461;40.948;73.006;2023-03-01T15:15:42;257.85;;;133.25;;
42866;SDS011;39461;40.948;73.006;2023-03-01T15:18:19;203.35;;;106.88;;
42866;SDS011;39461;40.948;73.006;2023-03-01T15:20:53;170.50;;;86.43;;
42866;SDS011;39461;40.948;73.006;2023-03-01T15:23:27;123.30;;;66.97;;
42866;SDS011;39461;40.948;73.006;2023-03-01T15:26:01;150.85;;;74.50;;
42866;SDS011;39461;40.948;73.006;2023-03-01T15:28:43;144.00;;;61.25;;
42866;SDS011;39461;40.948;73.006;2023-03-01T15:31:22;94.85;;;50.80;;
42866;SDS011;39461;40.948;73.006;2023-03-01T15:34:08;100.93;;;52.08;;
42866;SDS011;39461;40.948;73.006;2023-03-01T15:36:43;131.70;;;62.30;;
42866;SDS011;39461;40.948;73.006;2023-03-01T15:39:50;134.95;;;68.43;;
42866;SDS011;39461;40.948;73.006;2023-03-01T15:47:56;167.88;;;91.50;;
42866;SDS011;39461;40.948;73.006;2023-03-01T15:50:33;179.15;;;93.70;;
42866;SDS011;39461;40.948;73.006;2023-03-01T15:53:08;167.10;;;93.43;;
42866;SDS011;39461;40.948;73.006;2023-03-01T15:55:43;183.95;;;94.00;;
42866;SDS011;39461;40.948;73.006;2023-03-01T15:58:19;184.57;;;98.55;;
42866;SDS011;39461;40.948;73.006;2023-03-01T16:00:53;166.05;;;89.85;;
42866;SDS011;39461;40.948;73.006;2023-03-01T16:03:30;168.52;;;82.72;;
42866;SDS011;39461;40.948;73.006;2023-03-01T16:06:08;176.55;;;87.00;;
42866;SDS011;39461;40.948;73.006;2023-03-01T16:08:43;200.73;;;97.25;;
42866;SDS011;39461;40.948;73.006;2023-03-01T16:11:17;240.82;;;121.85;;
42866;SDS011;39461;40.948;73.006;2023-03-01T16:13:51;181.25;;;91.07;;
42866;SDS011;39461;40.948;73.006;2023-03-01T16:16:24;136.68;;;68.72;;
42866;SDS011;39461;40.948;73.006;2023-03-01T16:21:56;116.40;;;58.97;;
42866;SDS011;39461;40.948;73.006;2023-03-01T16:24:29;103.65;;;54.63;;
42866;SDS011;39461;40.948;73.006;2023-03-01T16:26:56;135.93;;;69.07;;
42866;SDS011;39461;40.948;73.006;2023-03-01T16:29:27;140.50;;;75.03;;
42866;SDS011;39461;40.948;73.006;2023-03-01T16:35:00;85.32;;;45.17;;
42866;SDS011;39461;40.948;73.006;2023-03-01T16:37:33;71.97;;;39.85;;
42866;SDS011;39461;40.948;73.006;2023-03-01T16:40:23;85.53;;;42.17;;
42866;SDS011;39461;40.948;73.006;2023-03-01T16:43:04;100.32;;;48.17;;
42866;SDS011;39461;40.948;73.006;2023-03-01T16:45:39;89.45;;;45.22;;
42866;SDS011;39461;40.948;73.006;2023-03-01T16:48:16;79.90;;;42.83;;
42866;SDS011;39461;40.948;73.006;2023-03-01T16:50:59;70.43;;;38.72;;
42866;SDS011;39461;40.948;73.006;2023-03-01T16:53:32;65.82;;;35.70;;
42866;SDS011;39461;40.948;73.006;2023-03-01T16:56:10;60.97;;;33.13;;
42866;SDS011;39461;40.948;73.006;2023-03-01T16:58:43;67.63;;;37.08;;
42866;SDS011;39461;40.948;73.006;2023-03-01T17:01:18;67.53;;;37.58;;
42866;SDS011;39461;40.948;73.006;2023-03-01T17:03:53;66.85;;;35.17;;
42866;SDS011;39461;40.948;73.006;2023-03-01T17:06:28;68.68;;;35.05;;
42866;SDS011;39461;40.948;73.006;2023-03-01T17:09:03;72.03;;;36.53;;
42866;SDS011;39461;40.948;73.006;2023-03-01T17:11:36;71.18;;;35.25;;
42866;SDS011;39461;40.948;73.006;2023-03-01T17:14:11;64.75;;;32.17;;
42866;SDS011;39461;40.948;73.006;2023-03-01T17:16:46;60.35;;;29.70;;
42866;SDS011;39461;40.948;73.006;2023-03-01T17:19:21;58.80;;;28.67;;
42866;SDS011;39461;40.948;73.006;2023-03-01T17:21:57;50.08;;;26.67;;
42866;SDS011;39461;40.948;73.006;2023-03-01T17:27:00;40.45;;;23.30;;
42866;SDS011;39461;40.948;73.006;2023-03-01T17:29:35;48.28;;;24.45;;
42866;SDS011;39461;40.948;73.006;2023-03-01T17:32:11;44.50;;;23.67;;
42866;SDS011;39461;40.948;73.006;2023-03-01T17:34:46;43.20;;;22.55;;
42866;SDS011;39461;40.948;73.006;2023-03-01T17:37:21;44.42;;;22.30;;
42866;SDS011;39461;40.948;73.006;2023-03-01T17:39:56;49.30;;;21.20;;
42866;SDS011;39461;40.948;73.006;2023-03-01T17:42:32;43.25;;;19.90;;
42866;SDS011;39461;40.948;73.006;2023-03-01T17:45:11;46.50;;;21.50;;
42866;SDS011;39461;40.948;73.006;2023-03-01T17:47:44;41.85;;;21.20;;
42866;SDS011;39461;40.948;73.006;2023-03-01T17:50:17;47.42;;;22.33;;
42866;SDS011;39461;40.948;73.006;2023-03-01T17:52:52;53.75;;;24.05;;
42866;SDS011;39461;40.948;73.006;2023-03-01T17:55:27;55.85;;;27.45;;
42866;SDS011;39461;40.948;73.006;2023-03-01T17:58:05;60.40;;;26.65;;
42866;SDS011;39461;40.948;73.006;2023-03-01T18:00:45;52.30;;;27.83;;
42866;SDS011;39461;40.948;73.006;2023-03-01T18:03:18;52.92;;;28.38;;
42866;SDS011;39461;40.948;73.006;2023-03-01T18:05:52;59.72;;;28.05;;
42866;SDS011;39461;40.948;73.006;2023-03-01T18:08:25;49.03;;;26.30;;
42866;SDS011;39461;40.948;73.006;2023-03-01T18:11:05;48.10;;;25.70;;
42866;SDS011;39461;40.948;73.006;2023-03-01T18:13:39;46.70;;;23.67;;
42866;SDS011;39461;40.948;73.006;2023-03-01T18:16:15;49.15;;;23.23;;